createdAt,value
2022-08-22T00:01:41.107Z,5.88
2022-08-22T00:02:47.469Z,0.93
2022-08-22T00:02:49.564Z,1.08
2022-08-22T00:02:49.712Z,0.30
2022-08-22T00:02:53.349Z,0.80
2022-08-22T00:02:54.492Z,0.25
2022-08-22T00:02:54.636Z,2.45
2022-08-22T00:03:02.036Z,0.70
2022-08-22T00:04:18.238Z,5.93
2022-08-22T00:06:56.540Z,5.13
2022-08-22T00:09:33.983Z,7.72
2022-08-22T00:12:17.102Z,10.13
2022-08-22T00:14:51.004Z,6.35
2022-08-22T00:17:38.851Z,7.72
2022-08-22T00:20:14.092Z,7.30
2022-08-22T00:22:50.357Z,8.77
2022-08-22T00:25:35.965Z,9.73
2022-08-22T00:28:10.084Z,7.78
2022-08-22T00:30:45.290Z,7.32
2022-08-22T00:33:25.586Z,5.07
2022-08-22T00:36:02.560Z,5.05
2022-08-22T00:38:36.920Z,10.13
2022-08-22T00:41:12.917Z,6.85
2022-08-22T00:44:09.695Z,5.75
2022-08-22T00:47:03.587Z,7.40
2022-08-22T00:49:54.317Z,7.18
2022-08-22T00:52:56.526Z,5.38
2022-08-22T00:55:39.324Z,7.40
2022-08-22T00:58:46.581Z,9.00
2022-08-22T01:01:21.754Z,7.03
2022-08-22T01:04:24.609Z,8.73
2022-08-22T01:07:09.437Z,5.53
2022-08-22T01:09:47.933Z,8.35
2022-08-22T01:12:29.255Z,7.13
2022-08-22T01:15:01.318Z,5.45
2022-08-22T01:18:03.547Z,6.68
2022-08-22T01:21:06.792Z,6.82
2022-08-22T01:24:05.647Z,7.95
2022-08-22T01:26:58.794Z,6.63
2022-08-22T01:29:55.787Z,8.02
2022-08-22T01:33:09.541Z,8.30
2022-08-22T01:36:14.081Z,7.75
2022-08-22T01:39:12.921Z,6.78
2022-08-22T01:42:08.348Z,6.80
2022-08-22T01:44:54.845Z,7.90
2022-08-22T01:47:27.653Z,9.73
2022-08-22T01:50:10.475Z,6.47
2022-08-22T01:52:43.376Z,7.30
2022-08-22T01:55:31.265Z,7.47
2022-08-22T01:58:03.534Z,8.88
2022-08-22T02:00:35.918Z,8.23
2022-08-22T02:03:21.792Z,6.45
2022-08-22T02:05:55.837Z,7.63
2022-08-22T02:08:34.937Z,7.80
2022-08-22T02:11:07.540Z,8.80
2022-08-22T02:13:54.715Z,9.90
2022-08-22T02:16:32.661Z,8.93
2022-08-22T02:19:21.185Z,9.20
2022-08-22T02:21:55.780Z,9.10
2022-08-22T02:24:29.693Z,7.70
2022-08-22T02:27:11.869Z,7.50
2022-08-22T02:29:45.972Z,8.98
2022-08-22T02:32:22.308Z,10.32
2022-08-22T02:35:00.331Z,13.25
2022-08-22T02:37:36.524Z,15.13
2022-08-22T02:40:11.441Z,10.98
2022-08-22T02:42:45.921Z,12.50
2022-08-22T02:45:23.332Z,9.93
2022-08-22T02:47:59.833Z,11.05
2022-08-22T02:50:38.364Z,11.25
2022-08-22T02:53:12.719Z,8.70
2022-08-22T02:55:49.199Z,8.65
2022-08-22T02:58:29.092Z,9.35
2022-08-22T03:01:17.458Z,12.25
2022-08-22T03:03:48.599Z,9.65
2022-08-22T03:06:39.988Z,20.30
2022-08-22T03:09:24.164Z,9.55
2022-08-22T03:12:06.164Z,9.27
2022-08-22T03:14:43.592Z,7.50
2022-08-22T03:17:17.713Z,10.00
2022-08-22T03:19:54.741Z,13.82
2022-08-22T03:22:30.478Z,13.65
2022-08-22T03:25:08.051Z,11.80
2022-08-22T03:27:49.873Z,11.63
2022-08-22T03:30:23.468Z,11.63
2022-08-22T03:32:55.510Z,13.70
2022-08-22T03:35:26.992Z,12.70
2022-08-22T03:38:08.927Z,11.15
2022-08-22T03:40:53.706Z,10.63
2022-08-22T03:43:52.125Z,8.48
2022-08-22T03:47:02.173Z,9.80
2022-08-22T03:50:05.453Z,10.18
2022-08-22T03:53:18.516Z,11.88
2022-08-22T03:56:21.802Z,11.00
2022-08-22T03:59:27.945Z,11.48
2022-08-22T04:02:33.370Z,11.02
2022-08-22T04:05:33.752Z,8.40
2022-08-22T04:08:30.023Z,10.93
2022-08-22T04:11:26.794Z,10.07
2022-08-22T04:14:15.837Z,10.63
2022-08-22T04:17:21.247Z,12.70
2022-08-22T04:20:21.169Z,9.90
2022-08-22T04:23:22.100Z,13.45
2022-08-22T04:25:56.742Z,8.43
2022-08-22T04:28:30.748Z,12.98
2022-08-22T04:31:04.947Z,10.65
2022-08-22T04:33:40.156Z,13.23
2022-08-22T04:36:17.651Z,12.20
2022-08-22T04:38:49.572Z,11.55
2022-08-22T04:41:25.814Z,11.05
2022-08-22T04:43:58.639Z,8.35
2022-08-22T04:46:37.217Z,11.07
2022-08-22T04:49:13.371Z,10.20
2022-08-22T04:51:47.580Z,13.38
2022-08-22T04:54:31.962Z,17.65
2022-08-22T04:57:15.342Z,13.93
2022-08-22T04:59:44.127Z,13.88
2022-08-22T05:02:20.828Z,16.08
2022-08-22T05:04:59.093Z,12.02
2022-08-22T05:07:35.824Z,15.98
2022-08-22T05:10:11.877Z,18.17
2022-08-22T05:12:45.194Z,15.27
2022-08-22T05:15:19.001Z,16.33
2022-08-22T05:17:54.441Z,11.45
2022-08-22T05:20:26.945Z,16.88
2022-08-22T05:23:00.038Z,21.42
2022-08-22T05:25:31.511Z,18.20
2022-08-22T05:28:12.046Z,18.65
2022-08-22T05:30:40.965Z,17.45
2022-08-22T05:33:26.279Z,17.73
2022-08-22T05:36:01.519Z,18.23
2022-08-22T05:38:33.094Z,24.98
2022-08-22T05:41:06.513Z,27.17
2022-08-22T05:43:38.256Z,22.63
2022-08-22T05:46:10.032Z,23.42
2022-08-22T05:48:43.794Z,22.30
2022-08-22T05:51:18.909Z,22.67
2022-08-22T05:53:53.472Z,22.70
2022-08-22T05:56:31.660Z,28.63
2022-08-22T05:59:08.153Z,29.58
2022-08-22T06:01:44.519Z,23.08
2022-08-22T06:04:18.928Z,18.85
2022-08-22T06:06:56.578Z,22.23
2022-08-22T06:09:35.608Z,19.38
2022-08-22T06:12:18.182Z,20.27
2022-08-22T06:15:00.913Z,17.08
2022-08-22T06:17:34.005Z,16.77
2022-08-22T06:20:03.292Z,14.88
2022-08-22T06:22:38.176Z,15.27
2022-08-22T06:25:12.791Z,12.00
2022-08-22T06:27:41.435Z,13.60
2022-08-22T06:30:13.516Z,16.08
2022-08-22T06:32:59.739Z,17.80
2022-08-22T06:35:53.662Z,11.93
2022-08-22T06:38:28.347Z,19.10
2022-08-22T06:41:00.460Z,16.33
2022-08-22T06:43:39.440Z,16.30
2022-08-22T06:46:08.343Z,20.38
2022-08-22T06:48:38.186Z,15.95
2022-08-22T06:51:08.601Z,16.48
2022-08-22T06:53:47.754Z,20.70
2022-08-22T06:56:21.985Z,19.77
2022-08-22T06:58:53.043Z,17.77
2022-08-22T07:01:25.345Z,18.08
2022-08-22T07:03:58.192Z,18.67
2022-08-22T07:06:31.708Z,18.77
2022-08-22T07:09:06.259Z,15.32
2022-08-22T07:11:40.071Z,14.15
2022-08-22T07:14:12.197Z,17.85
2022-08-22T07:16:44.708Z,15.45
2022-08-22T07:19:24.915Z,13.30
2022-08-22T07:21:53.175Z,16.50
2022-08-22T07:24:26.085Z,21.52
2022-08-22T07:27:14.062Z,18.92
2022-08-22T07:29:50.324Z,15.40
2022-08-22T07:32:24.160Z,17.42
2022-08-22T07:35:10.663Z,17.52
2022-08-22T07:37:54.588Z,18.30
2022-08-22T07:40:31.865Z,16.85
2022-08-22T07:43:06.147Z,13.98
2022-08-22T07:45:39.874Z,15.45
2022-08-22T07:48:26.063Z,14.02
2022-08-22T07:51:02.255Z,11.15
2022-08-22T07:53:37.404Z,12.18
2022-08-22T07:56:10.621Z,12.25
2022-08-22T07:58:41.957Z,12.68
2022-08-22T08:01:17.923Z,13.13
2022-08-22T08:03:53.416Z,17.58
2022-08-22T08:06:23.202Z,17.27
2022-08-22T08:08:52.667Z,12.07
2022-08-22T08:11:25.965Z,13.23
2022-08-22T08:13:58.871Z,11.80
2022-08-22T08:16:28.885Z,14.73
2022-08-22T08:19:00.420Z,13.57
2022-08-22T08:21:32.584Z,16.50
2022-08-22T08:24:02.159Z,15.55
2022-08-22T08:26:35.523Z,18.98
2022-08-22T08:29:05.672Z,20.35
2022-08-22T08:31:38.106Z,19.13
2022-08-22T08:34:16.270Z,19.83
2022-08-22T08:36:55.001Z,21.48
2022-08-22T08:39:28.614Z,15.20
2022-08-22T08:42:25.526Z,17.15
2022-08-22T08:45:12.925Z,18.55
2022-08-22T08:47:56.694Z,20.30
2022-08-22T08:50:38.028Z,17.55
2022-08-22T08:53:35.374Z,15.57
2022-08-22T08:56:12.063Z,17.48
2022-08-22T08:58:51.008Z,16.65
2022-08-22T09:01:42.215Z,19.55
2022-08-22T09:04:48.270Z,16.77
2022-08-22T09:07:58.520Z,16.92
2022-08-22T09:11:00.426Z,17.10
2022-08-22T09:13:48.324Z,20.65
2022-08-22T09:16:51.295Z,16.05
2022-08-22T09:19:55.349Z,19.75
2022-08-22T09:22:50.520Z,16.85
2022-08-22T09:25:24.773Z,16.13
2022-08-22T09:28:00.663Z,16.48
2022-08-22T09:30:44.439Z,14.23
2022-08-22T09:33:17.148Z,13.05
2022-08-22T09:35:57.723Z,20.48
2022-08-22T09:38:48.277Z,13.63
2022-08-22T09:41:31.533Z,17.40
2022-08-22T09:44:12.207Z,19.23
2022-08-22T09:46:54.608Z,14.98
2022-08-22T09:49:33.832Z,18.05
2022-08-22T09:52:14.526Z,15.23
2022-08-22T09:55:02.103Z,12.85
2022-08-22T09:57:37.843Z,16.52
2022-08-22T10:00:22.161Z,14.55
2022-08-22T10:03:02.319Z,12.25
2022-08-22T10:05:41.062Z,15.98
2022-08-22T10:08:20.422Z,14.27
2022-08-22T10:11:11.113Z,17.52
2022-08-22T10:13:57.847Z,18.45
2022-08-22T10:16:55.539Z,18.67
2022-08-22T10:19:31.900Z,21.42
2022-08-22T10:22:24.057Z,18.60
2022-08-22T10:25:18.467Z,19.55
2022-08-22T10:27:57.595Z,21.33
2022-08-22T10:30:29.891Z,18.35
2022-08-22T10:33:05.693Z,20.92
2022-08-22T10:35:55.771Z,18.23
2022-08-22T10:38:26.524Z,19.00
2022-08-22T10:41:02.400Z,19.10
2022-08-22T10:43:44.592Z,19.33
2022-08-22T10:46:16.615Z,31.98
2022-08-22T10:48:49.033Z,18.17
2022-08-22T10:51:28.894Z,16.38
2022-08-22T10:54:29.464Z,17.45
2022-08-22T10:57:09.464Z,17.00
2022-08-22T10:59:46.179Z,16.23
2022-08-22T11:02:32.008Z,17.60
2022-08-22T11:05:37.365Z,20.05
2022-08-22T11:08:45.430Z,14.70
2022-08-22T11:11:25.593Z,16.33
2022-08-22T11:14:25.052Z,16.20
2022-08-22T11:17:11.942Z,23.02
2022-08-22T11:20:23.921Z,18.63
2022-08-22T11:23:12.334Z,18.60
2022-08-22T11:25:55.105Z,18.30
2022-08-22T11:28:38.674Z,14.25
2022-08-22T11:31:19.534Z,16.58
2022-08-22T11:33:55.605Z,16.33
2022-08-22T11:36:31.484Z,20.08
2022-08-22T11:39:13.700Z,13.05
2022-08-22T11:41:55.161Z,15.80
2022-08-22T11:44:28.403Z,16.23
2022-08-22T11:46:58.545Z,15.75
2022-08-22T11:49:34.419Z,14.13
2022-08-22T11:52:23.913Z,18.00
2022-08-22T11:55:12.295Z,15.50
2022-08-22T11:57:45.103Z,14.98
2022-08-22T12:00:33.353Z,15.07
2022-08-22T12:03:24.063Z,12.57
2022-08-22T12:05:56.572Z,9.10
2022-08-22T12:09:04.534Z,9.60
2022-08-22T12:11:41.804Z,9.90
2022-08-22T12:14:20.278Z,14.45
2022-08-22T12:17:08.193Z,11.10
2022-08-22T12:20:05.784Z,12.05
2022-08-22T12:22:55.020Z,11.05
2022-08-22T12:25:44.554Z,9.70
2022-08-22T12:28:24.207Z,12.55
2022-08-22T12:31:16.596Z,10.68
2022-08-22T12:33:57.270Z,14.13
2022-08-22T12:36:51.809Z,12.27
2022-08-22T12:39:35.521Z,13.02
2022-08-22T12:42:27.047Z,12.18
2022-08-22T12:45:11.359Z,9.80
2022-08-22T12:47:54.410Z,14.88
2022-08-22T12:50:36.416Z,10.73
2022-08-22T12:53:20.525Z,11.73
2022-08-22T12:56:05.805Z,12.93
2022-08-22T12:59:31.989Z,15.15
2022-08-22T13:02:02.793Z,11.05
2022-08-22T13:04:35.233Z,7.88
2022-08-22T13:07:12.858Z,16.83
2022-08-22T13:09:47.504Z,8.18
2022-08-22T13:12:26.602Z,11.57
2022-08-22T13:15:03.450Z,13.70
2022-08-22T13:17:32.293Z,10.77
2022-08-22T13:20:10.926Z,11.95
2022-08-22T13:22:45.492Z,10.85
2022-08-22T13:25:26.121Z,14.73
2022-08-22T13:27:56.986Z,11.43
2022-08-22T13:30:31.863Z,10.40
2022-08-22T13:33:05.390Z,13.52
2022-08-22T13:35:44.623Z,12.98
2022-08-22T13:38:25.502Z,10.82
2022-08-22T13:40:56.440Z,12.48
2022-08-22T13:43:28.327Z,9.90
2022-08-22T13:45:58.740Z,14.73
2022-08-22T13:48:46.824Z,10.00
2022-08-22T13:51:24.692Z,14.48
2022-08-22T13:54:02.368Z,16.80
2022-08-22T13:56:40.077Z,9.30
2022-08-22T13:59:40.356Z,12.55
2022-08-22T14:02:31.017Z,13.68
2022-08-22T14:05:06.857Z,15.35
2022-08-22T14:07:39.570Z,12.88
2022-08-22T14:10:15.031Z,14.65
2022-08-22T14:12:52.110Z,14.50
2022-08-22T14:15:26.115Z,10.65
2022-08-22T14:18:11.189Z,17.08
2022-08-22T14:20:42.021Z,13.40
2022-08-22T14:23:17.123Z,14.85
2022-08-22T14:25:45.834Z,13.27
2022-08-22T14:28:28.293Z,11.55
2022-08-22T14:31:00.691Z,11.02
2022-08-22T14:33:35.624Z,8.95
2022-08-22T14:36:11.854Z,11.60
2022-08-22T14:38:48.367Z,12.52
2022-08-22T14:41:27.010Z,14.20
2022-08-22T14:43:59.572Z,12.40
2022-08-22T14:46:33.305Z,15.40
2022-08-22T14:49:16.157Z,13.13
2022-08-22T14:51:51.108Z,12.50
2022-08-22T14:54:23.410Z,12.10
2022-08-22T14:56:58.121Z,13.57
2022-08-22T14:59:37.500Z,11.90
2022-08-22T15:02:13.180Z,11.13
2022-08-22T15:04:45.436Z,16.05
2022-08-22T15:07:24.593Z,19.00
2022-08-22T15:09:57.252Z,12.07
2022-08-22T15:12:28.723Z,17.08
2022-08-22T15:15:00.620Z,13.77
2022-08-22T15:17:40.204Z,13.65
2022-08-22T15:20:26.037Z,12.30
2022-08-22T15:22:58.437Z,12.68
2022-08-22T15:25:31.242Z,11.65
2022-08-22T15:28:05.185Z,13.68
2022-08-22T15:30:37.851Z,15.35
2022-08-22T15:33:12.511Z,13.43
2022-08-22T15:35:42.760Z,13.52
2022-08-22T15:38:29.521Z,12.65
2022-08-22T15:41:31.170Z,14.35
2022-08-22T15:44:09.148Z,15.07
2022-08-22T15:46:46.351Z,16.83
2022-08-22T15:49:27.662Z,20.90
2022-08-22T15:52:11.195Z,16.95
2022-08-22T15:55:30.007Z,21.45
2022-08-22T15:58:12.997Z,20.35
2022-08-22T16:01:39.608Z,19.67
2022-08-22T16:04:49.166Z,21.42
2022-08-22T16:07:36.569Z,22.73
2022-08-22T16:10:10.746Z,20.20
2022-08-22T16:12:42.921Z,20.80
2022-08-22T16:15:44.171Z,22.77
2022-08-22T16:18:52.886Z,20.27
2022-08-22T16:22:00.133Z,22.88
2022-08-22T16:24:52.799Z,21.77
2022-08-22T16:27:25.345Z,21.33
2022-08-22T16:30:07.597Z,25.88
2022-08-22T16:32:36.191Z,27.25
2022-08-22T16:35:06.055Z,24.33
2022-08-22T16:37:51.066Z,27.10
2022-08-22T16:40:25.475Z,23.90
2022-08-22T16:43:13.793Z,30.15
2022-08-22T16:45:45.504Z,32.92
2022-08-22T16:48:34.571Z,27.02
2022-08-22T16:51:08.190Z,25.33
2022-08-22T16:54:06.110Z,26.67
2022-08-22T16:56:49.183Z,31.90
2022-08-22T16:59:38.522Z,30.10
2022-08-22T17:02:37.365Z,33.08
2022-08-22T17:05:23.839Z,30.92
2022-08-22T17:08:17.472Z,29.23
2022-08-22T17:10:58.234Z,29.83
2022-08-22T17:13:48.001Z,33.75
2022-08-22T17:16:32.630Z,26.98
2022-08-22T17:19:14.111Z,28.35
2022-08-22T17:21:51.961Z,24.25
2022-08-22T17:24:34.394Z,28.17
2022-08-22T17:27:08.889Z,23.98
2022-08-22T17:29:49.066Z,26.58
2022-08-22T17:32:22.901Z,24.52
2022-08-22T17:34:58.331Z,32.22
2022-08-22T17:37:36.083Z,22.58
2022-08-22T17:40:43.006Z,20.48
2022-08-22T17:43:27.040Z,24.33
2022-08-22T17:46:19.230Z,25.52
2022-08-22T17:48:55.027Z,30.45
2022-08-22T17:51:32.814Z,28.50
2022-08-22T17:54:07.291Z,28.10
2022-08-22T17:56:45.869Z,31.65
2022-08-22T17:59:21.176Z,37.88
2022-08-22T18:01:54.480Z,36.28
2022-08-22T18:04:30.058Z,28.85
2022-08-22T18:07:06.360Z,41.15
2022-08-22T18:09:40.006Z,36.63
2022-08-22T18:12:19.117Z,30.52
2022-08-22T18:14:53.427Z,41.42
2022-08-22T18:17:29.822Z,37.97
2022-08-22T18:20:07.713Z,39.75
2022-08-22T18:22:49.495Z,33.38
2022-08-22T18:25:40.825Z,39.28
2022-08-22T18:28:25.436Z,38.95
2022-08-22T18:31:02.507Z,31.75
2022-08-22T18:33:36.251Z,27.38
2022-08-22T18:36:11.919Z,28.35
2022-08-22T18:38:52.517Z,34.55
2022-08-22T18:41:31.498Z,32.13
2022-08-22T18:44:14.121Z,38.78
2022-08-22T18:46:47.914Z,40.80
2022-08-22T18:49:40.205Z,36.70
2022-08-22T18:52:19.602Z,33.30
2022-08-22T18:55:16.884Z,31.30
2022-08-22T18:58:05.748Z,34.75
2022-08-22T19:01:15.335Z,33.17
2022-08-22T19:04:25.422Z,37.05
2022-08-22T19:07:12.745Z,34.80
2022-08-22T19:10:09.681Z,39.08
2022-08-22T19:13:05.679Z,36.40
2022-08-22T19:15:49.760Z,33.55
2022-08-22T19:18:34.354Z,32.55
2022-08-22T19:21:37.845Z,34.33
2022-08-22T19:24:08.590Z,31.13
2022-08-22T19:26:43.282Z,30.02
2022-08-22T19:29:49.492Z,32.35
2022-08-22T19:32:50.824Z,41.92
2022-08-22T19:35:26.807Z,45.72
2022-08-22T19:37:59.514Z,34.28
2022-08-22T19:40:58.446Z,34.92
2022-08-22T19:43:36.700Z,32.47
2022-08-22T19:46:09.450Z,33.30
2022-08-22T19:48:52.631Z,33.08
2022-08-22T19:51:29.751Z,34.00
2022-08-22T19:54:16.272Z,31.88
2022-08-22T19:57:12.572Z,33.30
2022-08-22T20:00:00.335Z,32.88
2022-08-22T20:02:36.992Z,34.03
2022-08-22T20:05:19.163Z,33.70
2022-08-22T20:08:03.709Z,37.78
2022-08-22T20:10:46.970Z,26.15
2022-08-22T20:13:24.298Z,34.65
2022-08-22T20:16:22.409Z,28.45
2022-08-22T20:19:18.387Z,28.63
2022-08-22T20:21:59.963Z,26.88
2022-08-22T20:24:39.765Z,33.22
2022-08-22T20:27:15.795Z,34.67
2022-08-22T20:29:49.767Z,25.52
2022-08-22T20:32:21.603Z,24.92
2022-08-22T20:34:56.866Z,24.95
2022-08-22T20:37:50.665Z,25.67
2022-08-22T20:40:54.609Z,12.32
2022-08-22T20:43:35.232Z,9.75
2022-08-22T20:46:21.648Z,6.85
2022-08-22T20:48:58.348Z,5.45
2022-08-22T20:51:31.576Z,5.82
2022-08-22T20:54:10.270Z,6.90
2022-08-22T20:56:53.494Z,4.65
2022-08-22T20:59:30.656Z,3.65
2022-08-22T21:02:12.806Z,3.03
2022-08-22T21:04:53.138Z,3.28
2022-08-22T21:07:26.380Z,4.13
2022-08-22T21:10:22.845Z,1.38
2022-08-22T21:13:08.373Z,7.03
2022-08-22T21:15:41.030Z,2.20
2022-08-22T21:18:14.094Z,2.00
2022-08-22T21:20:42.225Z,2.42
2022-08-22T21:23:21.185Z,1.88
2022-08-22T21:25:58.964Z,2.03
2022-08-22T21:28:33.253Z,2.47
2022-08-22T21:31:13.893Z,3.75
2022-08-22T21:33:47.144Z,2.10
2022-08-22T21:36:18.216Z,2.38
2022-08-22T21:38:51.910Z,2.70
2022-08-22T21:41:29.756Z,2.17
2022-08-22T21:44:16.619Z,1.05
2022-08-22T21:46:46.188Z,2.33
2022-08-22T21:49:23.062Z,1.25
2022-08-22T21:51:51.448Z,1.63
2022-08-22T21:54:43.320Z,1.05
2022-08-22T21:57:35.366Z,1.45
2022-08-22T22:00:08.969Z,3.42
2022-08-22T22:02:43.687Z,1.85
2022-08-22T22:05:17.108Z,1.88
2022-08-22T22:07:48.427Z,1.35
2022-08-22T22:10:18.799Z,1.48
2022-08-22T22:12:49.249Z,1.65
2022-08-22T22:15:20.120Z,1.80
2022-08-22T22:17:49.632Z,3.10
2022-08-22T22:20:21.376Z,3.08
2022-08-22T22:22:49.575Z,3.47
2022-08-22T22:25:40.059Z,1.98
2022-08-22T22:28:12.235Z,1.13
2022-08-22T22:30:42.049Z,1.33
2022-08-22T22:33:12.044Z,1.73
2022-08-22T22:35:41.662Z,1.05
2022-08-22T22:38:10.180Z,2.47
2022-08-22T22:40:38.319Z,1.85
2022-08-22T22:43:06.465Z,2.08
2022-08-22T22:45:34.605Z,1.30
2022-08-22T22:48:02.768Z,3.65
2022-08-22T22:50:33.376Z,2.55
2022-08-22T22:53:01.415Z,1.70
2022-08-22T22:55:29.436Z,4.43
2022-08-22T22:57:59.595Z,1.80
2022-08-22T23:00:31.096Z,3.20
2022-08-22T23:03:01.036Z,1.58
2022-08-22T23:05:29.459Z,1.25
2022-08-22T23:07:59.841Z,3.22
2022-08-22T23:10:29.359Z,1.70
2022-08-22T23:12:57.483Z,1.63
2022-08-22T23:15:25.714Z,1.75
2022-08-22T23:17:56.693Z,2.58
2022-08-22T23:20:25.295Z,2.60
2022-08-22T23:22:53.299Z,1.75
2022-08-22T23:25:22.804Z,1.88
2022-08-22T23:27:58.577Z,4.47
2022-08-22T23:30:27.018Z,2.63
2022-08-22T23:32:55.756Z,2.00
2022-08-22T23:35:23.785Z,2.92
2022-08-22T23:37:52.674Z,1.77
2022-08-22T23:40:22.176Z,2.10
2022-08-22T23:42:50.349Z,2.60
2022-08-22T23:45:18.580Z,3.80
2022-08-22T23:47:46.698Z,1.73
2022-08-22T23:50:16.120Z,3.80
2022-08-22T23:52:45.714Z,2.22
2022-08-22T23:55:14.230Z,2.33
2022-08-22T23:57:43.662Z,2.75
